Time;durP1;ratioP1;P1;durP2;ratioP2;P2;SDS_P1;SDS_P2;PMS_P1;PMS_P2;Temp;Humidity;BMP_temperature;BMP_pressure;BME280_temperature;BME280_humidity;BME280_pressure;Samples;Min_cycle;Max_cycle;Signal;HPM_P1;HPM_P2
2023/06/20 00:02:19;;;;;;;21.67;19.40;;;18.00;99.90;;;;;;5030805;28;21074;-50
2023/06/20 00:04:46;;;;;;;19.90;18.10;;;18.00;99.90;;;;;;5025401;28;20467;-50
2023/06/20 00:07:12;;;;;;;21.37;19.23;;;18.00;99.90;;;;;;5031544;28;20501;-50
2023/06/20 00:09:39;;;;;;;21.10;18.97;;;18.00;99.90;;;;;;5021881;28;20992;-51
2023/06/20 00:12:08;;;;;;;20.37;18.47;;;17.90;99.90;;;;;;5029401;28;20545;-50
2023/06/20 00:14:37;;;;;;;21.43;19.43;;;17.80;99.90;;;;;;5026553;28;20546;-50
2023/06/20 00:17:05;;;;;;;22.90;20.27;;;17.80;99.90;;;;;;5033781;28;20860;-50
2023/06/20 00:19:32;;;;;;;20.90;18.93;;;17.80;93.20;;;;;;5029782;28;20485;-50
2023/06/20 00:21:58;;;;;;;40.37;19.03;;;17.70;94.50;;;;;;5028472;28;20483;-50
2023/06/20 00:24:25;;;;;;;21.00;19.00;;;17.70;90.40;;;;;;5032812;28;20490;-50
2023/06/20 00:26:51;;;;;;;21.63;19.43;;;17.60;84.00;;;;;;5028870;28;20454;-50
2023/06/20 00:29:19;;;;;;;20.70;18.60;;;17.60;79.00;;;;;;5028488;28;20544;-50
2023/06/20 00:31:46;;;;;;;20.77;18.93;;;17.50;80.80;;;;;;5027052;28;21007;-50
2023/06/20 00:34:12;;;;;;;21.47;19.33;;;17.50;77.30;;;;;;5027668;28;20549;-51
2023/06/20 00:36:39;;;;;;;21.77;19.57;;;17.40;67.90;;;;;;5033137;28;20538;-50
2023/06/20 00:39:05;;;;;;;21.80;19.60;;;17.40;68.30;;;;;;5032288;28;20558;-50
2023/06/20 00:41:32;;;;;;;22.60;20.43;;;17.40;66.50;;;;;;5024063;28;20459;-51
2023/06/20 00:44:02;;;;;;;22.50;19.67;;;17.40;72.30;;;;;;5031308;28;20997;-51
2023/06/20 00:46:33;;;;;;;28.70;20.47;;;17.40;65.80;;;;;;5031510;28;20970;-50
2023/06/20 00:49:00;;;;;;;22.57;20.17;;;17.30;66.70;;;;;;5029242;28;20510;-51
2023/06/20 00:51:29;;;;;;;23.77;21.37;;;17.30;63.10;;;;;;5030811;28;20550;-50
2023/06/20 00:53:57;;;;;;;21.20;19.20;;;17.30;62.00;;;;;;5032805;28;20479;-49
2023/06/20 00:56:25;;;;;;;24.57;20.67;;;17.30;60.70;;;;;;5033813;28;20547;-51
2023/06/20 00:58:52;;;;;;;22.60;20.60;;;17.30;60.80;;;;;;5031103;28;21095;-50
2023/06/20 01:01:18;;;;;;;23.87;21.50;;;17.30;60.90;;;;;;5025987;28;20503;-50
2023/06/20 01:03:47;;;;;;;23.53;21.33;;;17.30;63.30;;;;;;5028204;28;20926;-50
2023/06/20 01:06:23;;;;;;;23.13;20.93;;;17.20;61.40;;;;;;5030611;28;20470;-50
2023/06/20 01:09:00;;;;;;;23.43;21.23;;;17.20;60.50;;;;;;5028063;28;20480;-50
2023/06/20 01:11:32;;;;;;;23.27;20.80;;;17.20;60.50;;;;;;5030651;28;21047;-50
2023/06/20 01:14:05;;;;;;;22.70;20.57;;;17.20;59.80;;;;;;5027809;28;20495;-50
2023/06/20 01:16:42;;;;;;;23.00;20.77;;;17.20;64.40;;;;;;5032567;28;20530;-50
2023/06/20 01:19:28;;;;;;;23.77;21.57;;;17.30;67.80;;;;;;5029794;28;20474;-51
2023/06/20 01:21:59;;;;;;;24.10;21.70;;;17.30;59.30;;;;;;5027648;28;20509;-51
2023/06/20 01:24:36;;;;;;;21.80;19.90;;;17.30;66.40;;;;;;5024642;28;20919;-50
2023/06/20 01:27:11;;;;;;;24.53;21.07;;;17.30;68.70;;;;;;5030234;28;20886;-50
2023/06/20 01:29:43;;;;;;;23.30;21.20;;;17.20;64.20;;;;;;5026978;28;20562;-50
2023/06/20 01:32:16;;;;;;;23.30;20.67;;;17.30;66.20;;;;;;5030980;28;20543;-50
2023/06/20 01:34:47;;;;;;;23.33;20.73;;;17.20;70.70;;;;;;5030310;28;20562;-50
2023/06/20 01:37:16;;;;;;;22.67;20.50;;;17.10;66.40;;;;;;5031506;28;20542;-49
2023/06/20 01:39:46;;;;;;;23.47;21.37;;;17.10;71.70;;;;;;5029216;28;20594;-50
2023/06/20 01:42:16;;;;;;;23.03;21.00;;;17.20;60.30;;;;;;5026451;28;20569;-50
2023/06/20 01:44:44;;;;;;;24.87;22.47;;;17.20;60.70;;;;;;5024492;28;20492;-51
2023/06/20 01:47:13;;;;;;;23.63;21.20;;;17.10;60.10;;;;;;5029880;28;20479;-50
2023/06/20 01:49:40;;;;;;;22.77;20.73;;;17.00;66.70;;;;;;5027716;28;20574;-51
2023/06/20 01:52:10;;;;;;;23.90;21.80;;;16.90;58.40;;;;;;5024041;28;20458;-50
2023/06/20 01:54:38;;;;;;;24.27;22.07;;;17.00;55.20;;;;;;5024625;28;20534;-50
2023/06/20 01:57:08;;;;;;;22.60;20.70;;;16.90;57.90;;;;;;5031447;28;20545;-50
2023/06/20 01:59:35;;;;;;;23.50;20.50;;;17.00;54.40;;;;;;5050173;22;20922;-52
2023/06/20 02:02:04;;;;;;;24.77;22.37;;;16.90;61.40;;;;;;5051795;28;20557;-52
2023/06/20 02:04:33;;;;;;;24.60;22.30;;;16.90;62.10;;;;;;5052429;28;20534;-53
2023/06/20 02:07:02;;;;;;;22.17;20.03;;;16.80;57.70;;;;;;5050395;28;20553;-51
2023/06/20 02:09:29;;;;;;;23.50;21.50;;;16.80;50.70;;;;;;5049714;28;20478;-53
2023/06/20 02:11:57;;;;;;;24.53;22.03;;;16.80;54.20;;;;;;5046938;28;20497;-52
2023/06/20 02:14:26;;;;;;;24.47;22.27;;;16.80;51.50;;;;;;5048262;28;21046;-51
2023/06/20 02:16:53;;;;;;;25.27;22.77;;;16.80;52.90;;;;;;5050687;28;20562;-52
2023/06/20 02:19:20;;;;;;;24.63;22.20;;;16.80;51.80;;;;;;5051642;28;20557;-52
2023/06/20 02:21:48;;;;;;;24.20;22.00;;;16.80;49.50;;;;;;5051407;28;20536;-51
2023/06/20 02:24:20;;;;;;;26.63;23.97;;;16.70;46.10;;;;;;5043995;28;20514;-52
2023/06/20 02:26:49;;;;;;;27.90;22.20;;;16.70;44.60;;;;;;5043983;28;20489;-51
2023/06/20 02:29:17;;;;;;;23.80;21.57;;;16.70;44.60;;;;;;5048751;28;20565;-53
2023/06/20 02:31:49;;;;;;;24.20;21.73;;;16.70;43.50;;;;;;5043861;28;21012;-53
2023/06/20 02:34:20;;;;;;;23.10;21.07;;;16.70;36.20;;;;;;5045374;28;20554;-52
2023/06/20 02:36:48;;;;;;;24.33;22.20;;;16.70;37.90;;;;;;5051252;28;20478;-51
2023/06/20 02:39:14;;;;;;;23.43;21.30;;;16.70;37.10;;;;;;5050240;28;20564;-51
2023/06/20 02:41:42;;;;;;;23.43;21.30;;;16.60;35.50;;;;;;5050077;28;20553;-52
2023/06/20 02:44:08;;;;;;;24.20;21.90;;;16.60;39.50;;;;;;5045225;28;20485;-52
2023/06/20 02:46:42;;;;;;;23.90;21.30;;;16.60;42.20;;;;;;5046455;28;20526;-52
2023/06/20 02:49:17;;;;;;;24.83;22.53;;;16.60;41.60;;;;;;5048175;28;20569;-52
2023/06/20 02:51:53;;;;;;;24.80;22.67;;;16.50;41.30;;;;;;5045137;28;20465;-53
2023/06/20 02:54:26;;;;;;;25.10;22.90;;;16.50;38.10;;;;;;5041781;28;20493;-51
2023/06/20 02:56:56;;;;;;;24.00;21.90;;;16.50;38.50;;;;;;5046820;28;20545;-52
2023/06/20 02:59:28;;;;;;;23.93;21.83;;;16.50;37.00;;;;;;5049141;28;20526;-52
2023/06/20 03:01:58;;;;;;;24.03;20.90;;;16.40;37.60;;;;;;5043053;28;20493;-52
2023/06/20 03:04:32;;;;;;;24.70;22.10;;;16.50;35.90;;;;;;5046565;28;20981;-52
2023/06/20 03:07:01;;;;;;;24.33;22.23;;;16.50;37.50;;;;;;5050284;28;20465;-52
2023/06/20 03:09:29;;;;;;;23.47;21.20;;;16.50;34.40;;;;;;5050721;28;20540;-53
2023/06/20 03:11:55;;;;;;;24.83;22.33;;;16.50;32.10;;;;;;5050884;28;20446;-51
2023/06/20 03:14:22;;;;;;;21.43;19.50;;;16.50;28.80;;;;;;5049676;28;20581;-51
2023/06/20 03:16:49;;;;;;;24.27;22.07;;;16.50;27.40;;;;;;5051577;28;20524;-51
2023/06/20 03:19:15;;;;;;;22.83;20.77;;;16.50;30.60;;;;;;5050974;28;20561;-51
2023/06/20 03:21:43;;;;;;;22.30;20.30;;;16.50;31.80;;;;;;5049642;28;20931;-52
2023/06/20 03:24:10;;;;;;;22.43;20.23;;;16.50;31.30;;;;;;5041320;28;20572;-52
2023/06/20 03:26:36;;;;;;;22.17;20.07;;;16.50;29.30;;;;;;5051017;28;20896;-51
2023/06/20 03:29:03;;;;;;;22.43;20.40;;;16.60;33.50;;;;;;5051061;28;20474;-51
2023/06/20 03:31:30;;;;;;;21.83;19.93;;;16.60;37.60;;;;;;5050370;28;20549;-52
2023/06/20 03:33:56;;;;;;;21.83;19.93;;;16.60;34.30;;;;;;5049944;28;21199;-51
2023/06/20 03:36:23;;;;;;;22.10;20.27;;;16.60;36.70;;;;;;5045375;28;20533;-51
2023/06/20 03:38:51;;;;;;;22.57;20.57;;;16.70;39.30;;;;;;5050098;28;20485;-50
2023/06/20 03:41:17;;;;;;;23.37;21.07;;;16.80;38.80;;;;;;5051549;28;21007;-51
2023/06/20 03:43:44;;;;;;;22.27;20.23;;;16.80;41.20;;;;;;5050256;28;20576;-51
2023/06/20 03:46:10;;;;;;;20.63;18.63;;;16.90;46.30;;;;;;5050507;28;20537;-52
2023/06/20 03:48:37;;;;;;;21.23;19.07;;;16.90;48.90;;;;;;5051572;28;20549;-54
2023/06/20 03:51:04;;;;;;;21.17;19.27;;;17.00;45.00;;;;;;5051460;28;20482;-53
2023/06/20 03:53:30;;;;;;;23.03;20.83;;;17.10;48.60;;;;;;5043870;28;20462;-53
2023/06/20 03:55:58;;;;;;;20.93;18.93;;;17.20;48.60;;;;;;5047208;28;20542;-52
2023/06/20 03:58:25;;;;;;;21.40;19.33;;;17.30;52.50;;;;;;5048633;28;20545;-52
2023/06/20 04:00:51;;;;;;;22.60;20.37;;;17.30;50.90;;;;;;5048545;28;20469;-52
2023/06/20 04:03:18;;;;;;;20.67;18.83;;;17.40;54.50;;;;;;5050734;28;21070;-53
2023/06/20 04:05:44;;;;;;;22.60;20.50;;;17.50;59.70;;;;;;5053833;28;20519;-52
2023/06/20 04:08:11;;;;;;;20.30;18.50;;;17.50;61.30;;;;;;5051244;28;20455;-53
2023/06/20 04:10:38;;;;;;;20.93;18.93;;;17.60;64.50;;;;;;5049228;28;20541;-53
2023/06/20 04:13:06;;;;;;;20.77;18.77;;;17.70;61.80;;;;;;5051199;28;20462;-54
2023/06/20 04:15:32;;;;;;;21.47;19.37;;;17.70;67.10;;;;;;5045421;28;20549;-54
2023/06/20 04:17:59;;;;;;;20.70;18.73;;;17.70;71.90;;;;;;5048941;28;20549;-53
2023/06/20 04:20:25;;;;;;;20.17;18.23;;;17.80;75.80;;;;;;5045846;28;20560;-53
2023/06/20 04:22:52;;;;;;;19.70;18.00;;;17.80;80.70;;;;;;5053479;28;20547;-53
2023/06/20 04:25:19;;;;;;;20.50;18.50;;;17.80;82.00;;;;;;5045587;28;20573;-53
2023/06/20 04:27:53;;;;;;;22.67;18.70;;;17.90;83.70;;;;;;5044409;28;20485;-51
2023/06/20 04:30:21;;;;;;;20.40;18.57;;;17.90;85.00;;;;;;5051791;28;20517;-52
2023/06/20 04:32:48;;;;;;;20.50;18.40;;;17.90;89.50;;;;;;5051045;28;21014;-52
2023/06/20 04:35:14;;;;;;;21.20;19.30;;;18.00;87.20;;;;;;5045517;28;20485;-52
2023/06/20 04:37:42;;;;;;;20.07;18.37;;;18.00;91.30;;;;;;5050341;28;20462;-52
2023/06/20 04:40:11;;;;;;;20.40;18.53;;;18.10;91.20;;;;;;5046884;28;20572;-49
2023/06/20 04:42:38;;;;;;;20.07;18.10;;;18.20;92.60;;;;;;5047604;28;20465;-50
2023/06/20 04:45:05;;;;;;;20.23;18.20;;;18.30;92.90;;;;;;5046984;28;20898;-50
2023/06/20 04:47:33;;;;;;;22.67;20.47;;;18.40;92.90;;;;;;5052038;28;20494;-52
2023/06/20 04:50:03;;;;;;;20.40;18.47;;;18.60;99.90;;;;;;5051908;28;20943;-51
2023/06/20 04:52:29;;;;;;;21.57;19.47;;;18.70;99.90;;;;;;5050332;28;20485;-52
2023/06/20 04:55:01;;;;;;;21.20;19.10;;;18.80;99.90;;;;;;5044343;28;22183;-52
2023/06/20 04:57:28;;;;;;;20.23;18.27;;;19.00;99.90;;;;;;5048505;28;20555;-52
2023/06/20 04:59:54;;;;;;;21.80;19.70;;;19.10;99.90;;;;;;5045231;28;20482;-51
2023/06/20 05:02:21;;;;;;;22.10;18.60;;;19.20;99.90;;;;;;5051431;28;21067;-52
2023/06/20 05:04:49;;;;;;;19.57;17.70;;;19.40;99.90;;;;;;5051409;28;21058;-52
2023/06/20 05:07:15;;;;;;;22.87;20.57;;;19.50;99.90;;;;;;5052445;28;20545;-57
2023/06/20 05:09:42;;;;;;;19.23;17.33;;;19.50;99.90;;;;;;5051679;28;20510;-58
2023/06/20 05:12:08;;;;;;;18.67;17.03;;;19.60;99.90;;;;;;5052859;28;20572;-58
2023/06/20 05:14:35;;;;;;;20.17;18.03;;;19.60;99.90;;;;;;5045596;28;20564;-57
2023/06/20 05:17:02;;;;;;;19.30;17.40;;;19.70;99.90;;;;;;5048048;28;20468;-51
2023/06/20 05:19:29;;;;;;;20.00;18.10;;;19.80;99.90;;;;;;5043924;28;21050;-52
2023/06/20 05:21:56;;;;;;;21.13;18.20;;;19.90;99.90;;;;;;5049378;28;21005;-50
2023/06/20 05:24:23;;;;;;;19.70;17.90;;;19.90;99.90;;;;;;5050112;28;20580;-52
2023/06/20 05:26:50;;;;;;;20.40;17.70;;;20.00;99.90;;;;;;5052386;28;20538;-51
2023/06/20 05:29:16;;;;;;;18.93;17.03;;;20.00;99.90;;;;;;5052740;28;20561;-51
2023/06/20 05:31:43;;;;;;;19.70;17.70;;;20.10;99.90;;;;;;5047749;28;20545;-51
2023/06/20 05:34:09;;;;;;;22.33;19.17;;;20.10;99.90;;;;;;5046398;28;20542;-50
2023/06/20 05:36:36;;;;;;;19.40;17.37;;;20.10;99.90;;;;;;5046168;28;21129;-52
2023/06/20 05:39:04;;;;;;;20.30;18.40;;;20.20;99.90;;;;;;5046923;28;20535;-52
2023/06/20 05:41:30;;;;;;;24.03;19.37;;;20.20;99.90;;;;;;5047601;28;20458;-51
2023/06/20 05:43:57;;;;;;;23.23;19.30;;;20.20;99.90;;;;;;5044231;28;20561;-51
2023/06/20 05:46:23;;;;;;;19.70;17.80;;;20.20;99.90;;;;;;5051233;28;20557;-51
2023/06/20 05:48:50;;;;;;;18.77;17.17;;;20.20;99.90;;;;;;5050873;28;20901;-51
2023/06/20 05:51:16;;;;;;;19.33;17.37;;;20.20;99.90;;;;;;5050350;28;20508;-58
2023/06/20 05:53:43;;;;;;;19.13;17.23;;;20.30;99.90;;;;;;5036622;28;20495;-57
2023/06/20 05:56:13;;;;;;;20.50;18.63;;;20.40;99.90;;;;;;5040738;28;20485;-57
2023/06/20 05:58:41;;;;;;;19.83;17.77;;;20.40;99.90;;;;;;5050369;28;20463;-57
2023/06/20 06:01:08;;;;;;;20.47;18.37;;;20.50;99.90;;;;;;5043256;28;20461;-57
2023/06/20 06:03:34;;;;;;;19.90;18.13;;;20.50;99.90;;;;;;5050644;28;20493;-56
2023/06/20 06:06:03;;;;;;;20.63;18.40;;;20.60;99.90;;;;;;5045853;28;20850;-57
2023/06/20 06:08:30;;;;;;;20.53;18.40;;;20.60;99.90;;;;;;5051497;28;20835;-57
2023/06/20 06:10:56;;;;;;;21.20;19.10;;;20.60;99.90;;;;;;5046543;28;20545;-57
2023/06/20 06:13:24;;;;;;;20.60;18.63;;;20.70;99.90;;;;;;5046097;28;20920;-58
2023/06/20 06:15:51;;;;;;;19.60;17.80;;;20.80;99.90;;;;;;5042214;28;20504;-58
2023/06/20 06:18:17;;;;;;;20.63;18.73;;;20.90;99.90;;;;;;5050039;28;20473;-59
2023/06/20 06:20:44;;;;;;;21.23;19.23;;;21.00;99.90;;;;;;5048556;28;20477;-58
2023/06/20 06:23:11;;;;;;;21.30;19.30;;;21.10;99.90;;;;;;5050974;28;20534;-58
2023/06/20 06:25:37;;;;;;;22.73;20.60;;;21.20;99.90;;;;;;5048000;28;21078;-57
2023/06/20 06:28:04;;;;;;;23.23;20.30;;;21.20;99.90;;;;;;5048438;28;20502;-57
2023/06/20 06:30:32;;;;;;;20.73;18.73;;;21.20;99.90;;;;;;5045996;28;20527;-58
2023/06/20 06:33:01;;;;;;;22.43;19.50;;;21.30;99.90;;;;;;5038321;28;20540;-58
2023/06/20 06:35:30;;;;;;;21.20;19.20;;;21.30;99.90;;;;;;5051052;28;20442;-58
2023/06/20 06:37:57;;;;;;;20.93;18.93;;;21.40;99.90;;;;;;5051366;28;20466;-56
2023/06/20 06:40:23;;;;;;;19.63;17.77;;;21.40;99.90;;;;;;5049735;28;20488;-56
2023/06/20 06:42:50;;;;;;;21.17;19.17;;;21.50;20.50;;;;;;5049721;28;20544;-57
2023/06/20 06:45:17;;;;;;;22.67;20.47;;;21.60;28.00;;;;;;5050618;28;20576;-57
2023/06/20 06:47:45;;;;;;;21.00;19.03;;;21.70;76.80;;;;;;5047599;28;20545;-57
2023/06/20 06:50:11;;;;;;;23.10;20.93;;;21.70;22.70;;;;;;5052504;28;20513;-57
2023/06/20 06:52:39;;;;;;;21.50;19.40;;;21.80;22.50;;;;;;5043827;28;20972;-57
2023/06/20 06:55:07;;;;;;;24.80;19.87;;;21.90;28.00;;;;;;5049980;28;21031;-58
2023/06/20 06:57:33;;;;;;;22.03;20.03;;;22.00;35.30;;;;;;5051328;28;20515;-57
2023/06/20 07:00:00;;;;;;;23.33;20.83;;;22.10;37.30;;;;;;5053981;28;20509;-61
2023/06/20 07:02:27;;;;;;;23.63;21.43;;;22.20;58.90;;;;;;5045079;28;20549;-58
2023/06/20 07:04:55;;;;;;;24.93;21.00;;;22.30;54.30;;;;;;5045848;28;20474;-58
2023/06/20 07:07:21;;;;;;;21.50;19.20;;;22.30;64.90;;;;;;5049212;28;20501;-57
2023/06/20 07:09:48;;;;;;;22.30;20.00;;;22.40;79.50;;;;;;5052596;28;20561;-57
2023/06/20 07:12:14;;;;;;;21.77;19.57;;;22.40;84.80;;;;;;5045389;28;20919;-57
2023/06/20 07:14:41;;;;;;;21.67;19.63;;;22.40;92.20;;;;;;5041942;28;20481;-57
2023/06/20 07:17:07;;;;;;;22.93;20.63;;;22.50;91.20;;;;;;5044659;28;20494;-57
2023/06/20 07:19:34;;;;;;;24.47;21.83;;;22.60;95.40;;;;;;5040059;28;20569;-58
2023/06/20 07:22:03;;;;;;;22.47;20.23;;;22.60;91.90;;;;;;5044430;28;20462;-57
2023/06/20 07:24:30;;;;;;;23.57;21.07;;;22.70;86.20;;;;;;5045622;28;20493;-56
2023/06/20 07:26:56;;;;;;;22.90;20.53;;;22.80;84.40;;;;;;5051532;28;20474;-58
2023/06/20 07:29:22;;;;;;;24.20;21.60;;;22.90;80.00;;;;;;5048654;28;20517;-58
2023/06/20 07:31:49;;;;;;;20.70;18.90;;;22.90;97.30;;;;;;5042746;28;20562;-57
2023/06/20 07:34:16;;;;;;;22.93;20.77;;;23.00;99.90;;;;;;5050059;28;21383;-57
2023/06/20 07:36:42;;;;;;;24.07;21.87;;;23.20;99.90;;;;;;5050719;28;20504;-58
2023/06/20 07:39:10;;;;;;;22.63;20.43;;;23.40;99.90;;;;;;5039879;28;20525;-57
2023/06/20 07:41:37;;;;;;;24.17;21.50;;;23.60;99.90;;;;;;5055600;28;20889;-57
2023/06/20 07:44:04;;;;;;;23.50;21.00;;;23.70;99.90;;;;;;5052258;28;20492;-58
2023/06/20 07:46:31;;;;;;;22.57;20.47;;;23.80;99.90;;;;;;5054375;28;20837;-58
2023/06/20 07:48:57;;;;;;;22.43;20.50;;;23.80;99.90;;;;;;5055948;28;20481;-58
2023/06/20 07:51:24;;;;;;;22.17;20.07;;;23.80;99.90;;;;;;5059355;28;20478;-58
2023/06/20 07:53:50;;;;;;;20.83;18.93;;;23.90;99.90;;;;;;5058479;28;20458;-57
2023/06/20 07:56:18;;;;;;;23.10;20.70;;;23.90;99.90;;;;;;5045414;28;20544;-57
2023/06/20 07:58:47;;;;;;;23.93;21.87;;;23.90;99.90;;;;;;5053178;28;20525;-53
2023/06/20 08:01:14;;;;;;;24.50;22.30;;;24.00;99.90;;;;;;5051733;28;20474;-53
2023/06/20 08:03:41;;;;;;;23.60;21.13;;;23.90;99.90;;;;;;5051287;28;20533;-53
2023/06/20 08:06:07;;;;;;;23.20;21.17;;;23.90;99.90;;;;;;5052572;28;20909;-53
2023/06/20 08:08:34;;;;;;;22.30;20.10;;;23.80;99.90;;;;;;5047124;28;20496;-53
2023/06/20 08:11:01;;;;;;;22.60;20.27;;;23.80;99.90;;;;;;5050601;28;21054;-54
2023/06/20 08:13:29;;;;;;;23.47;21.27;;;23.70;99.90;;;;;;5049302;28;20994;-53
2023/06/20 08:15:55;;;;;;;25.47;22.57;;;23.60;99.90;;;;;;5052460;28;20525;-52
2023/06/20 08:18:22;;;;;;;25.00;22.53;;;23.60;99.90;;;;;;5050083;28;20545;-54
2023/06/20 08:20:48;;;;;;;26.00;23.30;;;23.60;99.90;;;;;;5043288;28;20514;-54
2023/06/20 08:23:15;;;;;;;25.40;22.80;;;23.50;99.90;;;;;;5050094;28;20830;-54
2023/06/20 08:25:42;;;;;;;23.03;20.83;;;23.50;99.90;;;;;;5051004;28;20520;-53
2023/06/20 08:28:08;;;;;;;22.93;20.60;;;23.50;99.90;;;;;;5049072;28;20549;-54
2023/06/20 08:30:36;;;;;;;23.17;20.73;;;23.60;99.90;;;;;;5039209;28;21031;-53
2023/06/20 08:33:02;;;;;;;22.93;20.47;;;23.60;99.90;;;;;;5049286;28;20556;-53
2023/06/20 08:35:29;;;;;;;24.87;22.40;;;23.60;99.90;;;;;;5052044;28;20879;-54
2023/06/20 08:37:55;;;;;;;24.40;22.00;;;23.70;99.90;;;;;;5052896;28;20549;-55
2023/06/20 08:40:22;;;;;;;23.80;21.47;;;23.70;99.90;;;;;;5048822;28;20482;-54
2023/06/20 08:42:49;;;;;;;23.70;21.30;;;23.70;99.90;;;;;;5053236;28;20485;-53
2023/06/20 08:45:17;;;;;;;23.30;21.10;;;23.70;99.90;;;;;;5051304;28;20599;-53
2023/06/20 08:47:45;;;;;;;24.33;21.70;;;23.70;99.90;;;;;;5053737;28;21143;-54
2023/06/20 08:50:12;;;;;;;24.37;22.00;;;23.70;99.90;;;;;;5049886;28;20592;-53
2023/06/20 08:52:45;;;;;;;26.60;24.10;;;23.80;99.90;;;;;;5053535;28;20457;-54
2023/06/20 08:55:13;;;;;;;25.50;23.20;;;23.80;99.90;;;;;;5050446;28;20490;-54
2023/06/20 08:57:39;;;;;;;32.37;24.60;;;23.90;99.90;;;;;;5053076;28;20493;-53
2023/06/20 09:00:08;;;;;;;28.67;23.07;;;23.90;99.90;;;;;;5052446;28;20525;-54
2023/06/20 09:02:35;;;;;;;27.63;25.07;;;24.00;99.90;;;;;;5049639;28;20553;-54
2023/06/20 09:05:04;;;;;;;25.03;22.63;;;24.00;99.90;;;;;;5052708;28;20585;-54
2023/06/20 09:07:36;;;;;;;30.27;24.47;;;24.00;99.90;;;;;;5051753;28;20492;-53
2023/06/20 09:10:03;;;;;;;27.10;24.60;;;24.00;99.90;;;;;;5050956;28;20873;-54
2023/06/20 09:12:32;;;;;;;26.77;23.90;;;23.90;99.90;;;;;;5051556;28;20509;-53
2023/06/20 09:14:59;;;;;;;27.37;24.80;;;23.90;99.90;;;;;;5048095;28;20553;-54
2023/06/20 09:17:25;;;;;;;25.60;23.17;;;23.90;99.90;;;;;;5050325;28;20493;-53
2023/06/20 09:19:52;;;;;;;26.00;23.63;;;23.80;99.90;;;;;;5051230;28;20517;-53
2023/06/20 09:22:21;;;;;;;27.60;24.67;;;23.80;99.90;;;;;;5042283;28;20505;-54
2023/06/20 09:24:47;;;;;;;25.13;22.90;;;23.70;99.90;;;;;;5050559;28;20517;-54
2023/06/20 09:27:14;;;;;;;24.63;22.40;;;23.70;99.90;;;;;;5046983;28;20470;-54
2023/06/20 09:29:50;;;;;;;24.50;21.93;;;23.60;99.90;;;;;;5049262;28;20573;-54
2023/06/20 09:32:20;;;;;;;24.43;21.80;;;23.50;99.90;;;;;;5045395;28;20816;-54
2023/06/20 09:34:46;;;;;;;28.90;20.30;;;23.50;99.90;;;;;;5051605;28;20454;-55
2023/06/20 09:37:15;;;;;;;28.13;20.53;;;23.40;99.90;;;;;;5049432;28;20899;-53
2023/06/20 09:39:43;;;;;;;28.67;22.00;;;23.20;99.90;;;;;;5048957;28;20918;-53
2023/06/20 09:42:12;;;;;;;26.13;21.20;;;23.20;99.90;;;;;;5042674;28;20963;-53
2023/06/20 09:44:39;;;;;;;23.57;20.57;;;23.10;99.90;;;;;;5050933;28;20469;-53
2023/06/20 09:47:06;;;;;;;24.10;21.80;;;23.00;99.90;;;;;;5050238;28;20546;-54
2023/06/20 09:49:35;;;;;;;128.43;28.47;;;22.90;99.90;;;;;;5050908;28;20560;-53
2023/06/20 09:52:05;;;;;;;33.17;21.90;;;22.80;99.90;;;;;;5050332;28;20960;-53
2023/06/20 09:54:44;;;;;;;24.70;22.10;;;22.60;99.90;;;;;;5049752;28;21082;-53
2023/06/20 09:57:17;;;;;;;22.83;20.10;;;22.60;99.90;;;;;;5051154;28;20464;-53
2023/06/20 09:59:43;;;;;;;275.00;38.97;;;22.50;87.50;;;;;;5047397;28;20481;-53
2023/06/20 10:02:10;;;;;;;22.57;20.37;;;22.40;58.10;;;;;;5047879;28;20572;-54
2023/06/20 10:04:42;;;;;;;24.27;21.13;;;22.50;41.20;;;;;;5049621;28;20458;-54
2023/06/20 10:07:10;;;;;;;23.70;21.23;;;22.30;99.90;;;;;;5050626;28;20458;-53
2023/06/20 10:09:37;;;;;;;22.77;20.57;;;22.00;99.90;;;;;;5050795;28;20509;-53
2023/06/20 10:12:05;;;;;;;31.30;21.60;;;21.70;99.90;;;;;;5051365;28;20490;-53
2023/06/20 10:14:33;;;;;;;54.53;24.20;;;21.40;90.80;;;;;;5045637;28;20558;-53
2023/06/20 10:17:06;;;;;;;25.03;22.33;;;21.00;49.70;;;;;;5047360;28;20508;-55
2023/06/20 10:19:47;;;;;;;29.20;24.50;;;20.80;86.10;;;;;;5051355;28;20482;-54
2023/06/20 10:22:14;;;;;;;29.40;22.70;;;20.50;99.90;;;;;;5044481;28;20536;-54
2023/06/20 10:24:41;;;;;;;25.33;22.83;;;20.40;99.90;;;;;;5047931;28;21216;-53
2023/06/20 10:27:07;;;;;;;27.80;24.97;;;20.20;99.90;;;;;;5046278;28;20920;-54
2023/06/20 10:29:41;;;;;;;35.53;25.50;;;20.00;99.90;;;;;;5039383;28;20990;-54
2023/06/20 10:32:09;;;;;;;31.63;25.60;;;19.90;99.90;;;;;;5043969;28;20461;-53
2023/06/20 10:34:36;;;;;;;28.87;25.80;;;19.90;99.90;;;;;;5047804;28;20537;-53
2023/06/20 10:37:38;;;;;;;27.27;24.57;;;19.80;99.90;;;;;;5044984;28;20450;-54
2023/06/20 10:40:08;;;;;;;29.33;25.23;;;19.80;99.90;;;;;;5046012;28;20476;-54
2023/06/20 10:42:38;;;;;;;32.67;27.77;;;19.70;99.90;;;;;;5039301;28;20466;-55
2023/06/20 10:45:20;;;;;;;33.80;27.03;;;19.70;99.90;;;;;;5049483;28;20469;-54
2023/06/20 10:47:47;;;;;;;39.57;28.70;;;19.70;99.90;;;;;;5045778;28;20928;-53
2023/06/20 10:50:14;;;;;;;43.33;28.67;;;19.70;99.90;;;;;;5052074;28;20493;-53
2023/06/20 10:52:41;;;;;;;35.53;28.40;;;19.70;99.90;;;;;;5051283;28;20868;-53
2023/06/20 10:55:09;;;;;;;30.87;27.60;;;19.70;99.90;;;;;;5050468;28;20545;-54
2023/06/20 10:57:35;;;;;;;31.60;28.03;;;19.60;99.90;;;;;;5042283;28;20826;-54
2023/06/20 11:00:09;;;;;;;31.13;27.93;;;19.60;99.90;;;;;;5048389;28;20522;-53
2023/06/20 11:02:37;;;;;;;30.67;27.50;;;19.60;99.90;;;;;;5044402;28;20442;-53
2023/06/20 11:05:06;;;;;;;30.17;27.20;;;19.60;99.90;;;;;;5051326;28;20906;-54
2023/06/20 11:07:32;;;;;;;30.40;27.57;;;19.60;99.90;;;;;;5044606;28;20563;-53
2023/06/20 11:09:59;;;;;;;31.40;28.10;;;19.60;99.90;;;;;;5050123;28;20514;-54
2023/06/20 11:12:26;;;;;;;34.30;28.93;;;19.70;99.90;;;;;;5050510;28;20469;-53
2023/06/20 11:14:52;;;;;;;30.20;27.10;;;19.70;99.90;;;;;;5041824;28;20549;-53
2023/06/20 11:17:19;;;;;;;31.97;28.67;;;19.70;99.90;;;;;;5050208;28;21022;-53
2023/06/20 11:19:47;;;;;;;32.23;28.67;;;19.70;99.90;;;;;;5048403;28;20536;-53
2023/06/20 11:22:14;;;;;;;41.23;29.90;;;19.60;99.90;;;;;;5050899;28;20521;-53
2023/06/20 11:24:42;;;;;;;38.20;28.70;;;19.70;99.90;;;;;;5049782;28;20500;-54
2023/06/20 11:27:13;;;;;;;31.93;28.93;;;19.70;99.90;;;;;;5044536;28;20569;-53
2023/06/20 11:29:40;;;;;;;34.00;30.40;;;19.70;99.90;;;;;;5043768;28;20481;-54
2023/06/20 11:32:10;;;;;;;34.60;31.13;;;19.80;99.90;;;;;;5046010;28;20540;-53
2023/06/20 11:37:30;;;;;;;33.40;30.20;;;19.90;99.90;;;;;;5087219;28;21129;-54
2023/06/20 11:39:57;;;;;;;36.13;31.70;;;20.00;99.90;;;;;;5078838;28;21057;-54
2023/06/20 11:42:24;;;;;;;36.60;32.77;;;20.00;99.90;;;;;;5065413;28;20883;-54
2023/06/20 11:44:50;;;;;;;36.17;32.07;;;20.10;99.90;;;;;;5066808;28;20459;-54
2023/06/20 11:47:17;;;;;;;35.30;31.90;;;20.10;99.90;;;;;;5069236;28;20521;-53
2023/06/20 11:49:43;;;;;;;37.97;34.07;;;20.10;99.90;;;;;;5067951;28;21025;-52
2023/06/20 11:52:10;;;;;;;37.53;33.67;;;20.10;99.90;;;;;;5067927;28;20489;-53
2023/06/20 11:54:51;;;;;;;37.60;31.50;;;20.10;99.90;;;;;;5066145;28;20544;-52
2023/06/20 11:57:27;;;;;;;37.97;33.97;;;20.20;99.90;;;;;;5074619;28;20489;-54
2023/06/20 11:59:54;;;;;;;44.93;33.17;;;20.20;99.90;;;;;;5069803;28;20533;-53
2023/06/20 12:02:21;;;;;;;38.20;34.20;;;20.20;99.90;;;;;;5060399;28;20522;-53
2023/06/20 12:04:56;;;;;;;41.80;36.67;;;20.30;99.90;;;;;;5063577;28;20536;-53
2023/06/20 12:07:25;;;;;;;38.63;34.53;;;20.40;99.90;;;;;;5065356;28;20938;-54
2023/06/20 12:09:52;;;;;;;39.03;35.03;;;20.40;99.90;;;;;;5064718;28;20496;-53
2023/06/20 12:12:20;;;;;;;39.53;35.67;;;20.50;99.90;;;;;;5067819;28;20499;-53
2023/06/20 12:14:52;;;;;;;39.03;34.77;;;20.70;99.90;;;;;;5069050;28;20457;-53
2023/06/20 12:17:19;;;;;;;42.50;35.90;;;20.80;99.90;;;;;;5062660;28;21040;-54
2023/06/20 12:19:52;;;;;;;38.40;34.30;;;20.90;99.90;;;;;;5066122;28;20567;-54
2023/06/20 12:22:19;;;;;;;35.40;31.87;;;21.00;99.90;;;;;;5063957;28;20461;-53
2023/06/20 12:24:46;;;;;;;34.53;31.13;;;20.90;99.90;;;;;;5064490;28;20500;-53
2023/06/20 12:27:14;;;;;;;34.50;31.10;;;20.80;98.00;;;;;;5066117;28;20453;-54
2023/06/20 12:29:40;;;;;;;32.83;29.40;;;20.70;96.60;;;;;;5059085;28;20933;-53
2023/06/20 12:32:09;;;;;;;32.80;29.33;;;20.70;96.90;;;;;;5063525;28;20457;-54
2023/06/20 12:34:35;;;;;;;33.37;29.87;;;20.70;98.30;;;;;;5063715;28;20468;-53